Time;durP1;ratioP1;P1;durP2;ratioP2;P2;SDS_P1;SDS_P2;PMS_P1;PMS_P2;Temp;Humidity;BMP_temperature;BMP_pressure;BME280_temperature;BME280_humidity;BME280_pressure;Samples;Min_cycle;Max_cycle;Signal;HPM_P1;HPM_P2
2023/12/09 00:01:18;;;;;;;37.03;9.27;;;8.20;99.90;;;;;;5045375;28;20025;-72
2023/12/09 00:03:43;;;;;;;33.35;9.60;;;8.20;99.90;;;;;;5046939;28;20053;-71
2023/12/09 00:06:09;;;;;;;37.17;8.25;;;8.20;99.90;;;;;;5046688;28;20021;-72
2023/12/09 00:08:35;;;;;;;41.75;9.93;;;8.20;99.90;;;;;;5046807;28;20075;-71
2023/12/09 00:11:01;;;;;;;30.00;9.15;;;8.20;99.90;;;;;;5046350;28;20024;-72
2023/12/09 00:13:26;;;;;;;34.85;9.82;;;8.20;99.90;;;;;;5046722;28;20108;-72
2023/12/09 00:15:52;;;;;;;32.25;9.18;;;8.20;99.90;;;;;;5046421;28;20258;-71
2023/12/09 00:18:18;;;;;;;31.92;9.00;;;8.20;99.90;;;;;;5047007;28;20013;-72
2023/12/09 00:20:44;;;;;;;36.67;9.40;;;8.30;99.90;;;;;;5044894;28;20505;-72
2023/12/09 00:23:09;;;;;;;36.40;8.80;;;8.20;99.90;;;;;;5045265;28;20646;-72
2023/12/09 00:25:35;;;;;;;38.50;10.38;;;8.30;99.90;;;;;;5046062;28;20147;-71
2023/12/09 00:28:01;;;;;;;39.25;9.68;;;8.30;99.90;;;;;;5046833;28;20032;-71
2023/12/09 00:30:27;;;;;;;38.05;8.95;;;8.30;99.90;;;;;;5044893;28;20245;-71
2023/12/09 00:32:53;;;;;;;38.33;8.77;;;8.30;99.90;;;;;;5046752;28;20434;-72
2023/12/09 00:35:19;;;;;;;36.92;8.50;;;8.30;99.90;;;;;;5046196;28;20037;-71
2023/12/09 00:37:44;;;;;;;40.78;9.63;;;8.30;99.90;;;;;;5046189;28;20059;-72
2023/12/09 00:40:11;;;;;;;43.03;8.82;;;8.30;99.90;;;;;;5046337;28;20021;-71
2023/12/09 00:42:37;;;;;;;36.67;8.48;;;8.30;99.90;;;;;;5046241;28;20018;-71
2023/12/09 00:45:04;;;;;;;37.20;10.32;;;8.30;99.90;;;;;;5046086;28;20078;-71
2023/12/09 00:47:30;;;;;;;25.83;7.90;;;8.30;99.90;;;;;;5046560;28;20043;-71
2023/12/09 00:49:55;;;;;;;33.55;9.07;;;8.30;99.90;;;;;;5046127;28;20490;-71
2023/12/09 00:52:21;;;;;;;32.42;7.95;;;8.30;99.90;;;;;;5046235;28;20087;-73
2023/12/09 00:54:47;;;;;;;31.13;8.48;;;8.30;99.90;;;;;;5046257;28;20032;-72
2023/12/09 00:57:13;;;;;;;31.70;8.43;;;8.20;99.90;;;;;;5044928;28;20025;-72
2023/12/09 00:59:38;;;;;;;29.55;8.73;;;8.20;99.90;;;;;;5046170;28;20024;-71
2023/12/09 01:02:04;;;;;;;25.90;7.95;;;8.20;99.90;;;;;;5045963;28;20025;-72
2023/12/09 01:04:30;;;;;;;33.50;8.35;;;8.20;99.90;;;;;;5044736;28;20013;-71
2023/12/09 01:06:56;;;;;;;33.17;9.43;;;8.20;99.90;;;;;;5045998;28;20021;-71
2023/12/09 01:09:22;;;;;;;33.08;8.57;;;8.20;99.90;;;;;;5046301;28;20454;-71
2023/12/09 01:11:47;;;;;;;32.17;9.63;;;8.20;99.90;;;;;;5044326;28;20079;-71
2023/12/09 01:14:13;;;;;;;39.55;10.25;;;8.20;99.90;;;;;;5045782;28;20494;-71
2023/12/09 01:16:38;;;;;;;26.30;8.50;;;8.10;99.90;;;;;;5045751;28;20025;-71
2023/12/09 01:19:04;;;;;;;40.67;9.23;;;8.10;99.90;;;;;;5046499;28;20024;-71
2023/12/09 01:21:30;;;;;;;39.28;9.70;;;8.10;99.90;;;;;;5046971;28;20094;-70
2023/12/09 01:23:55;;;;;;;30.08;8.38;;;8.10;99.90;;;;;;5049841;28;20088;-71
2023/12/09 01:26:21;;;;;;;32.72;8.90;;;8.10;99.90;;;;;;5049665;28;20025;-71
2023/12/09 01:28:47;;;;;;;35.53;8.95;;;8.10;99.90;;;;;;5049817;28;20031;-71
2023/12/09 01:31:12;;;;;;;36.03;9.18;;;8.10;99.90;;;;;;5049386;28;20032;-71
2023/12/09 01:33:38;;;;;;;34.10;8.73;;;8.00;99.90;;;;;;5049468;28;20392;-71
2023/12/09 01:36:04;;;;;;;35.70;8.30;;;8.10;99.90;;;;;;5049062;28;20052;-71
2023/12/09 01:38:30;;;;;;;30.63;8.65;;;8.00;99.90;;;;;;5049663;28;20032;-71
2023/12/09 01:40:56;;;;;;;36.47;8.40;;;8.00;99.90;;;;;;5049704;28;20028;-71
2023/12/09 01:43:23;;;;;;;30.75;8.90;;;8.00;99.90;;;;;;5049773;28;20035;-71
2023/12/09 01:45:53;;;;;;;28.75;7.75;;;8.00;99.90;;;;;;5047808;28;20021;-71
2023/12/09 01:48:19;;;;;;;46.78;9.70;;;8.00;99.90;;;;;;5049985;28;20013;-71
2023/12/09 01:50:45;;;;;;;42.90;10.00;;;8.00;99.90;;;;;;5049340;28;20028;-71
2023/12/09 01:53:11;;;;;;;42.25;9.02;;;8.00;99.90;;;;;;5049306;28;20043;-71
2023/12/09 01:55:38;;;;;;;43.65;10.27;;;7.90;99.90;;;;;;5048899;28;20033;-71
2023/12/09 01:58:04;;;;;;;37.58;9.13;;;8.00;99.90;;;;;;5049241;28;20040;-71
2023/12/09 02:00:30;;;;;;;22.13;8.32;;;8.00;99.90;;;;;;5049093;28;20048;-71
2023/12/09 02:02:56;;;;;;;40.67;9.30;;;7.90;99.90;;;;;;5048890;28;20025;-71
2023/12/09 02:05:22;;;;;;;30.90;8.32;;;7.90;99.90;;;;;;5048981;28;20100;-71
2023/12/09 02:07:48;;;;;;;37.00;9.02;;;7.90;99.90;;;;;;5048855;28;20036;-71
2023/12/09 02:10:14;;;;;;;40.75;9.38;;;7.90;99.90;;;;;;5049058;28;20021;-70
2023/12/09 02:13:12;;;;;;;38.80;10.23;;;7.80;99.90;;;;;;5048500;28;20025;-71
2023/12/09 02:15:50;;;;;;;32.15;8.57;;;7.80;99.90;;;;;;5048658;28;20036;-72
2023/12/09 02:18:17;;;;;;;39.50;9.52;;;7.80;99.90;;;;;;5048857;28;20474;-72
2023/12/09 02:20:42;;;;;;;29.67;8.85;;;7.80;99.90;;;;;;5048390;28;20536;-71
2023/12/09 02:23:12;;;;;;;32.15;9.20;;;7.80;99.90;;;;;;5048823;28;20025;-72
2023/12/09 02:25:38;;;;;;;39.33;9.75;;;7.80;99.90;;;;;;5048755;28;20094;-72
2023/12/09 02:28:17;;;;;;;44.28;9.77;;;7.80;99.90;;;;;;5048520;28;20401;-72
2023/12/09 02:31:00;;;;;;;38.30;9.48;;;7.80;99.90;;;;;;5048431;28;20021;-72
2023/12/09 02:33:28;;;;;;;39.15;10.57;;;7.80;99.90;;;;;;5048405;28;20025;-71
2023/12/09 02:35:55;;;;;;;30.85;8.45;;;7.70;99.90;;;;;;5046513;28;20045;-71
2023/12/09 02:38:23;;;;;;;45.88;8.77;;;7.80;99.90;;;;;;5048503;28;20028;-72
2023/12/09 02:40:50;;;;;;;42.45;9.50;;;7.70;99.90;;;;;;5048001;28;20017;-72
2023/12/09 02:43:16;;;;;;;34.33;9.23;;;7.70;99.90;;;;;;5048156;28;20021;-71
2023/12/09 02:45:45;;;;;;;34.40;9.65;;;7.70;99.90;;;;;;5047894;28;21370;-71
2023/12/09 02:48:11;;;;;;;36.55;9.85;;;7.70;99.90;;;;;;5048294;28;20651;-72
2023/12/09 02:50:37;;;;;;;42.03;10.50;;;7.80;99.90;;;;;;5047822;28;20041;-71
2023/12/09 02:53:03;;;;;;;28.58;8.40;;;7.70;99.90;;;;;;5048244;28;20028;-71
2023/12/09 02:55:29;;;;;;;43.58;10.70;;;7.70;99.90;;;;;;5048027;28;20032;-72
2023/12/09 02:57:54;;;;;;;36.42;8.73;;;7.70;99.90;;;;;;5046590;28;20017;-72
2023/12/09 03:00:20;;;;;;;43.00;9.93;;;7.70;99.90;;;;;;5047862;28;20100;-72
2023/12/09 03:02:45;;;;;;;33.80;9.77;;;7.60;99.90;;;;;;5047770;28;20078;-72
2023/12/09 03:05:11;;;;;;;43.35;9.85;;;7.60;99.90;;;;;;5048194;28;20108;-72
2023/12/09 03:07:37;;;;;;;33.97;10.27;;;7.60;99.90;;;;;;5036577;28;20100;-71
2023/12/09 03:10:03;;;;;;;35.72;9.88;;;7.50;99.90;;;;;;5047958;28;20028;-72
2023/12/09 03:12:28;;;;;;;34.50;9.13;;;7.50;99.90;;;;;;5047753;28;20055;-72
2023/12/09 03:14:54;;;;;;;37.95;9.23;;;7.50;99.90;;;;;;5047833;28;20078;-71
2023/12/09 03:17:20;;;;;;;39.13;9.70;;;7.40;99.90;;;;;;5047681;28;20051;-72
2023/12/09 03:19:45;;;;;;;44.92;9.15;;;7.40;99.90;;;;;;5047749;28;20024;-72
2023/12/09 03:22:11;;;;;;;38.10;9.48;;;7.30;99.90;;;;;;5047366;28;20017;-72
2023/12/09 03:24:36;;;;;;;34.50;8.10;;;7.30;99.90;;;;;;5047379;28;20112;-72
2023/12/09 03:27:02;;;;;;;37.40;9.65;;;7.30;99.90;;;;;;5047536;28;20070;-72
2023/12/09 03:29:28;;;;;;;44.10;9.95;;;7.30;99.90;;;;;;5047904;28;20028;-72
2023/12/09 03:31:53;;;;;;;36.72;9.05;;;7.30;99.90;;;;;;5047187;28;20013;-72
2023/12/09 03:34:19;;;;;;;33.10;9.10;;;7.20;99.90;;;;;;5047354;28;20605;-72
2023/12/09 03:36:45;;;;;;;34.30;8.40;;;7.20;99.90;;;;;;5045668;28;20120;-72
2023/12/09 03:39:11;;;;;;;35.65;9.13;;;7.20;99.90;;;;;;5047295;28;20032;-72
2023/12/09 03:41:36;;;;;;;30.88;8.38;;;7.20;99.90;;;;;;5046957;28;20044;-72
2023/12/09 03:44:02;;;;;;;37.67;9.27;;;7.20;99.90;;;;;;5047114;28;20025;-72
2023/12/09 03:46:28;;;;;;;36.95;8.50;;;7.20;99.90;;;;;;5047006;28;20040;-72
2023/12/09 03:48:54;;;;;;;41.88;9.40;;;7.20;99.90;;;;;;5045728;28;20410;-72
2023/12/09 03:51:20;;;;;;;35.22;8.52;;;7.30;99.90;;;;;;5046900;28;20048;-72
2023/12/09 03:53:45;;;;;;;34.10;8.48;;;7.30;99.90;;;;;;5047087;28;20535;-72
2023/12/09 03:56:11;;;;;;;28.55;8.40;;;7.30;99.90;;;;;;5047083;28;20021;-72
2023/12/09 03:58:37;;;;;;;32.70;7.88;;;7.30;99.90;;;;;;5047203;28;20575;-72
2023/12/09 04:01:04;;;;;;;29.40;8.27;;;7.40;99.90;;;;;;5046692;28;20151;-72
2023/12/09 04:03:30;;;;;;;23.35;7.72;;;7.40;99.90;;;;;;5047404;28;20099;-72
2023/12/09 04:05:55;;;;;;;29.10;8.63;;;7.40;99.90;;;;;;5046793;28;20431;-72
2023/12/09 04:08:21;;;;;;;35.67;8.40;;;7.40;99.90;;;;;;5046998;28;20743;-72
2023/12/09 04:10:47;;;;;;;39.88;8.40;;;7.40;99.90;;;;;;5046247;28;20509;-72
2023/12/09 04:13:12;;;;;;;28.80;8.18;;;7.40;99.90;;;;;;5047324;28;20075;-72
2023/12/09 04:15:38;;;;;;;38.05;9.50;;;7.40;99.90;;;;;;5046722;28;20068;-72
2023/12/09 04:18:07;;;;;;;30.88;7.70;;;7.40;99.90;;;;;;5047041;28;20509;-72
2023/12/09 04:20:33;;;;;;;33.22;8.93;;;7.50;99.90;;;;;;5046537;28;20398;-72
2023/12/09 04:22:59;;;;;;;26.58;8.15;;;7.50;99.90;;;;;;5046778;28;20055;-72
2023/12/09 04:25:25;;;;;;;34.63;8.30;;;7.50;99.90;;;;;;5045586;28;20060;-72
2023/12/09 04:27:56;;;;;;;35.05;8.60;;;7.50;99.90;;;;;;5045137;28;20549;-72
2023/12/09 04:30:22;;;;;;;32.90;8.05;;;7.50;99.90;;;;;;5047027;28;20017;-72
2023/12/09 04:32:48;;;;;;;32.55;7.40;;;7.50;99.90;;;;;;5045015;28;20541;-72
2023/12/09 04:35:14;;;;;;;33.00;7.50;;;7.50;99.90;;;;;;5044998;28;20077;-72
2023/12/09 04:37:39;;;;;;;36.38;7.40;;;7.50;99.90;;;;;;5044672;28;20025;-72
2023/12/09 04:40:09;;;;;;;29.48;7.75;;;7.40;99.90;;;;;;5045141;28;20799;-72
2023/12/09 04:42:35;;;;;;;32.20;7.87;;;7.40;99.90;;;;;;5046300;28;20104;-72
2023/12/09 04:45:01;;;;;;;34.05;7.53;;;7.40;99.90;;;;;;5046319;28;20366;-72
2023/12/09 04:47:26;;;;;;;29.02;6.60;;;7.40;99.90;;;;;;5046044;28;20458;-71
2023/12/09 04:49:52;;;;;;;31.23;7.35;;;7.30;99.90;;;;;;5046316;28;20025;-72
2023/12/09 04:52:18;;;;;;;33.63;6.93;;;7.30;99.90;;;;;;5046082;28;20056;-72
2023/12/09 04:54:43;;;;;;;38.03;7.88;;;7.30;99.90;;;;;;5044923;28;20055;-72
2023/12/09 04:57:09;;;;;;;35.80;8.68;;;7.30;99.90;;;;;;5046789;28;20070;-72
2023/12/09 04:59:35;;;;;;;22.70;7.20;;;7.30;99.90;;;;;;5050492;28;20017;-71
2023/12/09 05:02:00;;;;;;;27.55;7.38;;;7.30;99.90;;;;;;5048828;28;20116;-72
2023/12/09 05:04:26;;;;;;;32.22;7.45;;;7.30;99.90;;;;;;5050113;28;20017;-72
2023/12/09 05:06:52;;;;;;;28.38;7.18;;;7.30;99.90;;;;;;5049886;28;20026;-72
2023/12/09 05:09:18;;;;;;;36.55;7.82;;;7.20;99.90;;;;;;5050328;28;20100;-72
2023/12/09 05:11:44;;;;;;;33.15;8.52;;;7.30;99.90;;;;;;5049737;28;20139;-72
2023/12/09 05:14:09;;;;;;;33.65;7.45;;;7.20;99.90;;;;;;5050485;28;20132;-72
2023/12/09 05:16:35;;;;;;;29.60;7.65;;;7.20;99.90;;;;;;5049581;28;20510;-72
2023/12/09 05:19:01;;;;;;;36.97;7.38;;;7.20;99.90;;;;;;5049963;28;20608;-72
2023/12/09 05:21:27;;;;;;;30.33;7.60;;;7.10;99.90;;;;;;5049471;28;20013;-72
2023/12/09 05:23:52;;;;;;;27.75;8.48;;;7.10;99.90;;;;;;5050143;28;20032;-72
2023/12/09 05:26:25;;;;;;;34.40;8.00;;;7.10;99.90;;;;;;5049689;28;20402;-72
2023/12/09 05:28:52;;;;;;;31.90;8.10;;;7.20;99.90;;;;;;5049735;28;20043;-72
2023/12/09 05:31:18;;;;;;;34.33;8.50;;;7.10;99.90;;;;;;5049365;28;20044;-72
2023/12/09 05:33:44;;;;;;;45.08;9.38;;;7.10;99.90;;;;;;5049745;28;20025;-72
2023/12/09 05:36:10;;;;;;;33.20;7.43;;;7.10;99.90;;;;;;5049426;28;20041;-72
2023/12/09 05:38:35;;;;;;;30.45;7.32;;;7.10;99.90;;;;;;5049614;28;20021;-72
2023/12/09 05:41:01;;;;;;;23.17;7.32;;;7.10;99.90;;;;;;5047898;28;20394;-71
2023/12/09 05:43:27;;;;;;;27.33;6.85;;;7.10;99.90;;;;;;5049591;28;20025;-72
2023/12/09 05:45:52;;;;;;;30.42;7.35;;;7.10;99.90;;;;;;5049052;28;20490;-72
2023/12/09 05:48:18;;;;;;;30.77;7.47;;;7.10;99.90;;;;;;5047879;28;20479;-71
2023/12/09 05:50:44;;;;;;;28.88;7.40;;;7.10;99.90;;;;;;5049501;28;20017;-72
2023/12/09 05:53:10;;;;;;;27.85;6.82;;;7.10;99.90;;;;;;5049176;28;20028;-72
2023/12/09 05:55:36;;;;;;;37.35;7.95;;;7.10;99.90;;;;;;5049090;28;20394;-72
2023/12/09 05:58:02;;;;;;;36.22;7.47;;;7.10;99.90;;;;;;5049003;28;20044;-72
2023/12/09 06:00:28;;;;;;;26.33;6.13;;;7.10;99.90;;;;;;5049475;28;20017;-72
2023/12/09 06:02:54;;;;;;;27.55;7.30;;;7.10;99.90;;;;;;5048985;28;20017;-72
2023/12/09 06:05:20;;;;;;;31.90;7.47;;;7.00;99.90;;;;;;5049147;28;20044;-72
2023/12/09 06:07:46;;;;;;;25.38;6.95;;;7.00;99.90;;;;;;5048134;28;20029;-72
2023/12/09 06:10:11;;;;;;;29.98;7.07;;;7.00;99.90;;;;;;5048982;28;20021;-72
2023/12/09 06:12:37;;;;;;;32.10;7.28;;;7.00;99.90;;;;;;5048347;28;20032;-72
2023/12/09 06:15:04;;;;;;;24.75;6.57;;;7.00;99.90;;;;;;5049255;28;20040;-72
2023/12/09 06:17:30;;;;;;;26.67;6.38;;;6.90;99.90;;;;;;5047318;28;20017;-72
2023/12/09 06:19:55;;;;;;;33.28;7.13;;;7.00;99.90;;;;;;5048600;28;20486;-72
2023/12/09 06:22:21;;;;;;;31.17;7.38;;;6.90;99.90;;;;;;5048718;28;20017;-71
2023/12/09 06:24:47;;;;;;;31.70;6.47;;;6.90;99.90;;;;;;5048629;28;20032;-72
2023/12/09 06:27:13;;;;;;;28.52;6.85;;;6.90;99.90;;;;;;5048858;28;20040;-72
2023/12/09 06:29:38;;;;;;;32.80;7.50;;;6.90;99.90;;;;;;5047368;28;20036;-72
2023/12/09 06:32:05;;;;;;;26.35;6.07;;;7.00;99.90;;;;;;5048369;28;20391;-72
2023/12/09 06:34:31;;;;;;;26.27;7.00;;;6.90;99.90;;;;;;5048307;28;20048;-72
2023/12/09 06:36:58;;;;;;;31.48;6.68;;;7.00;99.90;;;;;;5046781;28;20021;-73
2023/12/09 06:39:23;;;;;;;28.23;6.30;;;7.00;99.90;;;;;;5048415;28;20207;-72
2023/12/09 06:41:49;;;;;;;16.88;5.35;;;7.00;99.90;;;;;;5048148;28;20028;-72
2023/12/09 06:44:15;;;;;;;23.85;5.72;;;7.00;99.90;;;;;;5048677;28;20032;-72
2023/12/09 06:46:40;;;;;;;25.05;6.22;;;7.00;99.90;;;;;;5048339;28;20025;-72
2023/12/09 06:49:07;;;;;;;21.75;5.30;;;7.00;99.90;;;;;;5048387;28;21350;-72
2023/12/09 06:51:33;;;;;;;25.10;5.15;;;7.00;99.90;;;;;;5048173;28;20067;-72
2023/12/09 06:54:00;;;;;;;24.52;6.18;;;7.10;99.90;;;;;;5046919;28;20053;-72
2023/12/09 06:56:26;;;;;;;24.45;5.93;;;7.10;99.90;;;;;;5048128;28;20036;-72
2023/12/09 06:58:52;;;;;;;27.85;5.88;;;7.10;99.90;;;;;;5048371;28;20025;-72
2023/12/09 07:01:28;;;;;;;28.30;5.93;;;7.10;99.90;;;;;;5047848;28;20532;-72
2023/12/09 07:03:54;;;;;;;22.35;5.85;;;7.20;99.90;;;;;;5047781;28;20753;-72
2023/12/09 07:06:23;;;;;;;23.02;5.75;;;7.20;99.90;;;;;;5048069;28;20032;-72
2023/12/09 07:08:49;;;;;;;22.98;5.43;;;7.20;99.90;;;;;;5047780;28;20082;-72
2023/12/09 07:11:18;;;;;;;22.45;4.90;;;7.20;99.90;;;;;;5047751;28;20024;-72
2023/12/09 07:13:44;;;;;;;25.77;5.10;;;7.20;99.90;;;;;;5044271;28;20528;-72
2023/12/09 07:16:10;;;;;;;26.42;5.85;;;7.30;99.90;;;;;;5043792;28;20053;-72
2023/12/09 07:18:43;;;;;;;21.27;5.15;;;7.30;99.90;;;;;;5042030;28;20070;-72
2023/12/09 07:21:26;;;;;;;20.25;4.75;;;7.30;99.90;;;;;;5032261;28;20049;-72
2023/12/09 07:23:51;;;;;;;26.00;5.60;;;7.30;99.90;;;;;;5036658;28;20024;-72
2023/12/09 07:26:18;;;;;;;25.25;4.88;;;7.30;99.90;;;;;;5047252;28;20414;-72
2023/12/09 07:28:45;;;;;;;23.52;5.75;;;7.30;99.90;;;;;;5046954;28;20033;-72
2023/12/09 07:31:10;;;;;;;24.67;4.90;;;7.40;99.90;;;;;;5037170;28;20021;-72
2023/12/09 07:33:36;;;;;;;23.40;5.05;;;7.40;99.90;;;;;;5045397;28;20410;-72
2023/12/09 07:36:02;;;;;;;20.77;4.93;;;7.40;99.90;;;;;;5047186;28;20045;-72
2023/12/09 07:38:28;;;;;;;20.95;4.50;;;7.40;99.90;;;;;;5047010;28;20017;-72
2023/12/09 07:40:53;;;;;;;22.85;4.97;;;7.40;99.90;;;;;;5047536;28;20029;-72
2023/12/09 07:43:19;;;;;;;24.67;5.78;;;7.50;99.90;;;;;;5047074;28;20383;-72
2023/12/09 07:45:45;;;;;;;17.30;5.30;;;7.50;99.90;;;;;;5047294;28;20029;-72
2023/12/09 07:48:10;;;;;;;16.00;4.63;;;7.50;99.90;;;;;;5046986;28;20032;-72
2023/12/09 07:50:36;;;;;;;16.55;4.07;;;7.50;99.90;;;;;;5046740;28;20490;-72
2023/12/09 07:53:02;;;;;;;23.30;4.90;;;7.50;99.90;;;;;;5035265;28;20502;-72
2023/12/09 07:55:28;;;;;;;23.30;4.63;;;7.50;99.90;;;;;;5045899;28;20043;-72
2023/12/09 07:57:54;;;;;;;25.45;4.28;;;7.50;99.90;;;;;;5047135;28;20475;-72
2023/12/09 08:00:19;;;;;;;35.83;5.95;;;7.50;99.90;;;;;;5047015;28;20574;-72
2023/12/09 08:02:45;;;;;;;24.48;4.90;;;7.60;99.90;;;;;;5046648;28;20037;-72
2023/12/09 08:05:11;;;;;;;16.30;4.47;;;7.60;99.90;;;;;;5047032;28;20025;-72
2023/12/09 08:07:37;;;;;;;20.15;4.13;;;7.60;99.90;;;;;;5046512;28;20044;-72
2023/12/09 08:10:03;;;;;;;20.40;3.67;;;7.60;99.90;;;;;;5046842;28;20029;-72
2023/12/09 08:12:28;;;;;;;18.50;4.50;;;7.70;99.90;;;;;;5045280;28;20068;-72
2023/12/09 08:14:54;;;;;;;18.25;3.90;;;7.70;99.90;;;;;;5046565;28;20111;-73
2023/12/09 08:17:19;;;;;;;16.90;3.88;;;7.70;99.90;;;;;;5046437;28;20033;-72
2023/12/09 08:19:45;;;;;;;22.60;4.00;;;7.70;99.90;;;;;;5046550;28;20013;-72
2023/12/09 08:22:12;;;;;;;20.55;4.05;;;7.70;99.90;;;;;;5046470;28;20059;-72
2023/12/09 08:24:37;;;;;;;19.52;4.00;;;7.70;99.90;;;;;;5046484;28;20477;-71
2023/12/09 08:27:03;;;;;;;18.33;3.47;;;7.70;99.90;;;;;;5045101;28;20021;-72
2023/12/09 08:29:29;;;;;;;15.50;3.70;;;7.70;99.90;;;;;;5043187;28;20024;-72
2023/12/09 08:31:56;;;;;;;22.67;3.83;;;7.70;99.90;;;;;;5045019;28;20036;-72
2023/12/09 08:34:22;;;;;;;18.95;4.22;;;7.80;99.90;;;;;;5046419;28;20065;-72
2023/12/09 08:36:48;;;;;;;13.60;3.78;;;7.80;99.90;;;;;;5046298;28;20110;-72
2023/12/09 08:39:14;;;;;;;16.90;3.63;;;7.80;99.90;;;;;;5046589;28;20406;-72
2023/12/09 08:41:39;;;;;;;20.63;4.30;;;7.80;99.90;;;;;;5045603;28;20057;-72
2023/12/09 08:44:05;;;;;;;18.63;3.85;;;7.80;99.90;;;;;;5047245;28;20474;-72
2023/12/09 08:46:31;;;;;;;20.08;4.07;;;7.80;99.90;;;;;;5046147;28;20029;-72
2023/12/09 08:48:57;;;;;;;23.17;3.70;;;7.90;99.90;;;;;;5045763;28;20478;-72
2023/12/09 08:51:23;;;;;;;15.82;3.28;;;7.90;99.90;;;;;;5046380;28;20163;-72
2023/12/09 08:53:50;;;;;;;19.63;4.40;;;7.90;99.90;;;;;;5045951;28;20086;-72
2023/12/09 08:56:15;;;;;;;18.98;3.70;;;7.90;99.90;;;;;;5044779;28;20107;-72
2023/12/09 08:58:41;;;;;;;18.50;3.55;;;7.90;99.90;;;;;;5045908;28;20163;-72
2023/12/09 09:01:08;;;;;;;18.38;3.60;;;7.90;99.90;;;;;;5046242;28;20037;-72
2023/12/09 09:03:33;;;;;;;19.20;3.80;;;8.00;99.90;;;;;;5045147;28;20083;-72
2023/12/09 09:05:59;;;;;;;13.75;3.40;;;8.00;99.90;;;;;;5044938;28;20554;-72
2023/12/09 09:08:25;;;;;;;21.48;3.92;;;8.00;99.90;;;;;;5045979;28;20029;-71
2023/12/09 09:10:51;;;;;;;17.40;3.10;;;8.00;99.90;;;;;;5046125;28;20032;-72
2023/12/09 09:13:16;;;;;;;21.88;4.32;;;8.00;99.90;;;;;;5045642;28;20078;-72
2023/12/09 09:15:42;;;;;;;20.38;3.75;;;8.00;99.90;;;;;;5045922;28;20498;-72
2023/12/09 09:18:08;;;;;;;24.58;4.40;;;8.00;99.90;;;;;;5045747;28;20023;-72
2023/12/09 09:20:34;;;;;;;19.45;3.85;;;8.10;99.90;;;;;;5041630;28;20029;-72
2023/12/09 09:22:59;;;;;;;14.00;3.40;;;8.00;99.90;;;;;;5045661;28;20486;-72
2023/12/09 09:25:25;;;;;;;16.65;3.72;;;8.10;99.90;;;;;;5035134;28;20033;-72
2023/12/09 09:27:51;;;;;;;14.38;3.08;;;8.10;99.90;;;;;;5045372;28;20106;-72
2023/12/09 09:30:19;;;;;;;14.57;3.60;;;8.10;99.90;;;;;;5046080;28;20021;-72
2023/12/09 09:32:46;;;;;;;12.82;2.95;;;8.10;99.90;;;;;;5045426;28;20060;-72
2023/12/09 09:35:12;;;;;;;12.20;3.20;;;8.10;99.90;;;;;;5043587;28;20463;-72
2023/12/09 09:37:38;;;;;;;21.95;3.38;;;8.10;99.90;;;;;;5045226;28;20052;-72
2023/12/09 09:40:04;;;;;;;12.38;3.38;;;8.10;99.90;;;;;;5044910;28;20067;-72
2023/12/09 09:42:36;;;;;;;15.43;2.97;;;8.20;99.90;;;;;;5046697;28;20025;-72
2023/12/09 09:45:24;;;;;;;12.55;2.50;;;8.20;99.90;;;;;;5048440;28;20025;-72
2023/12/09 09:47:52;;;;;;;14.07;3.10;;;8.20;99.90;;;;;;5047717;28;20016;-72
2023/12/09 09:50:22;;;;;;;11.98;2.80;;;8.20;99.90;;;;;;5049861;28;20025;-72
2023/12/09 09:52:49;;;;;;;12.90;2.92;;;8.30;99.90;;;;;;5047035;28;20029;-72
2023/12/09 09:55:19;;;;;;;13.07;2.72;;;8.30;99.90;;;;;;5039449;28;20032;-73
2023/12/09 09:57:45;;;;;;;14.35;3.00;;;8.30;99.90;;;;;;5049003;28;20474;-72
2023/12/09 10:00:15;;;;;;;14.07;3.15;;;8.40;99.90;;;;;;5048019;28;20055;-72
2023/12/09 10:02:45;;;;;;;13.17;2.93;;;8.40;99.90;;;;;;5049264;28;20013;-72
2023/12/09 10:05:12;;;;;;;21.92;3.35;;;8.40;99.90;;;;;;5049309;28;20287;-72
2023/12/09 10:07:39;;;;;;;17.52;3.10;;;8.40;99.90;;;;;;5048836;28;20036;-72
2023/12/09 10:10:06;;;;;;;17.15;3.10;;;8.40;99.90;;;;;;5049389;28;20027;-73
2023/12/09 10:12:32;;;;;;;14.15;3.38;;;8.50;99.90;;;;;;5048432;28;20478;-73
2023/12/09 10:15:00;;;;;;;17.65;3.65;;;8.50;99.90;;;;;;5048423;28;20582;-72
2023/12/09 10:17:27;;;;;;;14.65;3.83;;;8.50;99.90;;;;;;5048573;28;20021;-72
2023/12/09 10:19:54;;;;;;;13.30;3.15;;;8.50;99.90;;;;;;5048529;28;20986;-73
2023/12/09 10:22:20;;;;;;;14.25;3.42;;;8.50;99.90;;;;;;5048408;28;20021;-73
2023/12/09 10:24:50;;;;;;;14.68;2.90;;;8.60;99.90;;;;;;5046971;28;20021;-72
2023/12/09 10:27:20;;;;;;;13.02;3.58;;;8.60;99.90;;;;;;5047206;28;20539;-73
2023/12/09 10:29:45;;;;;;;15.90;3.35;;;8.60;99.90;;;;;;5042905;28;20021;-73
2023/12/09 10:32:12;;;;;;;17.35;3.05;;;8.60;99.90;;;;;;5038318;28;20044;-73
2023/12/09 10:34:39;;;;;;;11.63;2.55;;;8.60;99.90;;;;;;5046445;28;20604;-73
2023/12/09 10:37:08;;;;;;;15.57;3.05;;;8.60;99.90;;;;;;5047534;28;20017;-72
2023/12/09 10:39:34;;;;;;;12.43;2.70;;;8.60;99.90;;;;;;5048021;28;20028;-73
2023/12/09 10:42:00;;;;;;;8.68;2.65;;;8.60;99.90;;;;;;5046378;28;20486;-72
2023/12/09 10:44:26;;;;;;;12.27;2.88;;;8.60;99.90;;;;;;5047536;28;20021;-72
2023/12/09 10:46:51;;;;;;;16.08;2.67;;;8.70;99.90;;;;;;5042757;28;20032;-72
2023/12/09 10:49:18;;;;;;;12.63;2.70;;;8.60;99.90;;;;;;5036895;28;20021;-72
2023/12/09 10:51:44;;;;;;;15.93;3.45;;;8.70;99.90;;;;;;5047669;28;20551;-72
2023/12/09 10:54:10;;;;;;;19.40;3.60;;;8.70;99.90;;;;;;5040332;28;20029;-72
2023/12/09 10:56:36;;;;;;;9.50;2.30;;;8.70;99.90;;;;;;5047526;28;20074;-72
2023/12/09 10:59:03;;;;;;;8.60;2.58;;;8.70;99.90;;;;;;5047492;28;20020;-73
2023/12/09 11:01:29;;;;;;;14.40;3.78;;;8.70;99.90;;;;;;5035358;28;20013;-72
2023/12/09 11:03:56;;;;;;;11.13;2.70;;;8.80;99.90;;;;;;5045773;28;20020;-72
2023/12/09 11:06:24;;;;;;;12.68;2.88;;;8.80;99.90;;;;;;5044489;28;20094;-72
2023/12/09 11:08:51;;;;;;;17.55;3.55;;;8.80;99.90;;;;;;5045519;28;20057;-72
2023/12/09 11:11:18;;;;;;;16.83;3.20;;;8.80;99.90;;;;;;5046538;28;20021;-72
2023/12/09 11:13:46;;;;;;;9.15;2.58;;;8.80;99.90;;;;;;5045443;28;20029;-72
2023/12/09 11:16:15;;;;;;;11.48;3.25;;;8.80;99.90;;;;;;5031517;28;20091;-72
2023/12/09 11:18:49;;;;;;;17.17;2.90;;;8.80;99.90;;;;;;5046213;28;20017;-72
2023/12/09 11:21:16;;;;;;;9.00;2.20;;;8.80;99.90;;;;;;5043479;28;20025;-72
2023/12/09 11:23:52;;;;;;;9.27;2.28;;;8.80;99.90;;;;;;5044198;28;20474;-73
2023/12/09 11:26:25;;;;;;;10.38;2.20;;;8.80;99.90;;;;;;5046669;28;20033;-72
2023/12/09 11:29:07;;;;;;;11.55;2.67;;;8.80;99.90;;;;;;5047107;28;20021;-72
2023/12/09 11:31:41;;;;;;;13.95;2.83;;;8.70;99.90;;;;;;5042684;28;20059;-72
2023/12/09 11:34:08;;;;;;;12.25;2.67;;;8.70;99.90;;;;;;5044454;28;20047;-72
2023/12/09 11:36:35;;;;;;;11.05;3.13;;;8.70;99.90;;;;;;5038801;28;20049;-72
2023/12/09 11:39:04;;;;;;;16.67;2.90;;;8.70;99.90;;;;;;5043571;28;20423;-73
2023/12/09 11:41:30;;;;;;;10.65;2.60;;;8.80;99.90;;;;;;5042495;28;20113;-72
2023/12/09 11:43:57;;;;;;;11.90;2.88;;;8.80;99.90;;;;;;5044590;28;20145;-72
2023/12/09 11:46:23;;;;;;;16.05;3.47;;;8.80;99.90;;;;;;5045842;28;20070;-72
2023/12/09 11:48:50;;;;;;;19.90;3.33;;;8.80;99.90;;;;;;5046665;28;20430;-73
2023/12/09 11:51:18;;;;;;;8.23;2.65;;;8.80;99.90;;;;;;5045460;28;20051;-72
2023/12/09 11:53:58;;;;;;;13.45;2.42;;;8.80;99.90;;;;;;5046053;28;20032;-72
2023/12/09 11:56:24;;;;;;;14.80;2.90;;;8.80;99.90;;;;;;5037739;28;20494;-72
2023/12/09 11:58:50;;;;;;;11.77;3.25;;;8.80;99.90;;;;;;5040461;28;20550;-72
2023/12/09 12:01:17;;;;;;;15.13;2.95;;;8.80;99.90;;;;;;5043345;28;20418;-72
2023/12/09 12:03:44;;;;;;;12.43;2.53;;;8.80;99.90;;;;;;5039660;28;20017;-72
2023/12/09 12:06:10;;;;;;;13.27;2.40;;;8.80;99.90;;;;;;5045052;28;20029;-72
2023/12/09 12:08:36;;;;;;;13.27;3.22;;;8.80;99.90;;;;;;5041939;28;20096;-72
2023/12/09 12:11:03;;;;;;;8.70;2.22;;;8.80;99.90;;;;;;5040576;28;20056;-72
2023/12/09 12:13:29;;;;;;;10.05;2.45;;;8.80;99.90;;;;;;5035133;28;20040;-73
2023/12/09 12:15:55;;;;;;;14.77;2.67;;;8.80;99.90;;;;;;5036724;28;20201;-72
2023/12/09 12:18:22;;;;;;;12.85;2.70;;;8.80;99.90;;;;;;5040707;28;20057;-71
2023/12/09 12:20:48;;;;;;;14.07;2.42;;;8.80;99.90;;;;;;5043003;28;20626;-73
2023/12/09 12:23:15;;;;;;;14.82;2.88;;;8.70;99.90;;;;;;5042775;28;20053;-72
2023/12/09 12:25:41;;;;;;;10.73;2.75;;;8.70;99.90;;;;;;5036452;28;20031;-72
2023/12/09 12:28:07;;;;;;;15.70;3.05;;;8.70;99.90;;;;;;5042071;28;20401;-72
2023/12/09 12:30:32;;;;;;;10.95;2.38;;;8.70;99.90;;;;;;5046514;28;20025;-72
2023/12/09 12:32:58;;;;;;;13.60;2.33;;;8.80;99.90;;;;;;5045629;28;20021;-72
2023/12/09 12:35:25;;;;;;;13.38;2.10;;;8.70;99.90;;;;;;5046102;28;20061;-72
2023/12/09 12:37:50;;;;;;;15.35;2.80;;;8.80;99.90;;;;;;5044209;28;20112;-72
2023/12/09 12:40:17;;;;;;;13.82;2.63;;;8.70;99.90;;;;;;5046408;28;20441;-72
2023/12/09 12:42:43;;;;;;;7.38;2.10;;;8.70;99.90;;;;;;5032158;28;20024;-72
2023/12/09 12:45:20;;;;;;;10.95;2.60;;;8.70;99.90;;;;;;5043982;28;20041;-72